createdAt,value
2022-10-16T00:00:43.498Z,100430.47
2022-10-16T00:03:26.771Z,100437.44
2022-10-16T00:06:08.916Z,100432.94
2022-10-16T00:08:49.641Z,100437.44
2022-10-16T00:11:29.147Z,100440.28
2022-10-16T00:14:08.852Z,100434.97
2022-10-16T00:16:49.211Z,100442.66
2022-10-16T00:19:31.439Z,100440.16
2022-10-16T00:22:12.855Z,100444.50
2022-10-16T00:24:52.442Z,100441.34
2022-10-16T00:27:43.860Z,100443.19
2022-10-16T00:30:24.250Z,100437.53
2022-10-16T00:33:03.465Z,100449.69
2022-10-16T00:35:43.407Z,100448.69
2022-10-16T00:38:25.107Z,100443.84
2022-10-16T00:41:06.888Z,100449.16
2022-10-16T00:43:46.597Z,100451.00
2022-10-16T00:46:26.377Z,100446.81
2022-10-16T00:49:08.875Z,100436.13
2022-10-16T00:51:49.130Z,100435.78
2022-10-16T00:54:28.921Z,100426.47
2022-10-16T00:57:08.341Z,100424.63
2022-10-16T00:59:47.971Z,100420.31
2022-10-16T01:02:27.976Z,100420.31
2022-10-16T01:05:10.290Z,100410.09
2022-10-16T01:07:50.957Z,100414.63
2022-10-16T01:10:33.439Z,100403.06
2022-10-16T01:13:16.567Z,100401.88
2022-10-16T01:16:01.004Z,100404.91
2022-10-16T01:18:41.836Z,100403.72
2022-10-16T01:21:42.168Z,100409.41
2022-10-16T01:24:24.795Z,100419.41
2022-10-16T01:27:09.941Z,100430.63
2022-10-16T01:29:52.280Z,100418.47
2022-10-16T01:32:33.384Z,100419.47
2022-10-16T01:35:15.575Z,100423.13
2022-10-16T01:37:54.268Z,100421.44
2022-10-16T01:40:33.492Z,100422.63
2022-10-16T01:43:13.423Z,100426.31
2022-10-16T01:45:52.652Z,100429.81
2022-10-16T01:48:32.502Z,100428.97
2022-10-16T01:51:15.567Z,100427.66
2022-10-16T01:53:56.013Z,100422.50
2022-10-16T01:56:35.141Z,100428.00
2022-10-16T01:59:17.766Z,100427.53
2022-10-16T02:01:57.886Z,100429.88
2022-10-16T02:04:40.792Z,100419.84
2022-10-16T02:07:22.805Z,100422.56
2022-10-16T02:10:04.239Z,100423.38
2022-10-16T02:12:44.484Z,100424.75
2022-10-16T02:15:25.385Z,100429.06
2022-10-16T02:18:05.121Z,100434.56
2022-10-16T02:21:04.515Z,100440.25
2022-10-16T02:23:44.878Z,100447.91
2022-10-16T02:26:25.921Z,100446.25
2022-10-16T02:29:07.754Z,100448.03
2022-10-16T02:31:49.140Z,100449.53
2022-10-16T02:34:29.342Z,100452.38
2022-10-16T02:37:09.722Z,100452.19
2022-10-16T02:39:48.771Z,100447.69
2022-10-16T02:42:31.594Z,100442.72
2022-10-16T02:45:13.600Z,100446.38
2022-10-16T02:47:52.262Z,100441.22
2022-10-16T02:50:30.438Z,100450.88
2022-10-16T02:53:11.373Z,100454.56
2022-10-16T02:55:52.844Z,100453.72
2022-10-16T02:58:32.251Z,100448.06
2022-10-16T03:01:17.589Z,100444.41
2022-10-16T03:03:56.724Z,100446.25
2022-10-16T03:06:38.530Z,100441.75
2022-10-16T03:09:19.890Z,100438.06
2022-10-16T03:12:12.960Z,100438.41
2022-10-16T03:15:11.973Z,100438.59
2022-10-16T03:17:51.507Z,100456.91
2022-10-16T03:20:31.297Z,100459.09
2022-10-16T03:23:11.193Z,100447.91
2022-10-16T03:25:50.126Z,100449.25
2022-10-16T03:28:31.204Z,100447.78
2022-10-16T03:31:10.528Z,100451.59
2022-10-16T03:33:50.285Z,100447.63
2022-10-16T03:36:30.428Z,100444.44
2022-10-16T03:39:11.980Z,100446.63
2022-10-16T03:41:51.307Z,100440.97
2022-10-16T03:44:31.178Z,100442.97
2022-10-16T03:47:10.954Z,100440.00
2022-10-16T03:49:51.878Z,100439.00
2022-10-16T03:52:30.580Z,100449.97
2022-10-16T03:55:12.382Z,100448.00
2022-10-16T03:57:51.817Z,100451.31
2022-10-16T04:00:31.605Z,100445.66
2022-10-16T04:03:11.396Z,100438.00
2022-10-16T04:05:51.316Z,100435.19
2022-10-16T04:08:35.135Z,100424.03
2022-10-16T04:11:25.796Z,100438.66
2022-10-16T04:14:07.589Z,100447.00
2022-10-16T04:16:46.967Z,100452.16
2022-10-16T04:19:28.842Z,100460.47
2022-10-16T04:22:07.407Z,100443.31
2022-10-16T04:24:47.619Z,100437.34
2022-10-16T04:27:32.190Z,100450.00
2022-10-16T04:30:22.617Z,100456.97
2022-10-16T04:33:02.424Z,100457.63
2022-10-16T04:35:44.506Z,100457.16
2022-10-16T04:38:25.636Z,100446.16
2022-10-16T04:41:05.156Z,100443.50
2022-10-16T04:43:44.814Z,100438.16
2022-10-16T04:46:24.652Z,100439.66
2022-10-16T04:49:04.412Z,100431.66
2022-10-16T04:51:44.276Z,100439.66
2022-10-16T04:54:27.129Z,100433.50
2022-10-16T04:57:07.073Z,100437.34
2022-10-16T04:59:48.928Z,100456.13
2022-10-16T05:02:28.399Z,100450.31
2022-10-16T05:05:09.606Z,100451.13
2022-10-16T05:07:50.485Z,100449.66
2022-10-16T05:10:31.334Z,100449.66
2022-10-16T05:13:26.679Z,100456.28
2022-10-16T05:16:07.877Z,100446.63
2022-10-16T05:18:53.262Z,100446.16
2022-10-16T05:21:39.449Z,100448.81
2022-10-16T05:24:20.770Z,100454.13
2022-10-16T05:27:01.734Z,100467.94
2022-10-16T05:29:57.471Z,100464.44
2022-10-16T05:32:48.517Z,100457.94
2022-10-16T05:35:30.307Z,100463.28
2022-10-16T05:38:11.586Z,100463.59
2022-10-16T05:40:56.247Z,100453.63
2022-10-16T05:43:37.377Z,100460.59
2022-10-16T05:46:18.859Z,100445.75
2022-10-16T05:49:19.389Z,100463.25
2022-10-16T05:51:59.757Z,100462.59
2022-10-16T05:54:40.129Z,100475.38
2022-10-16T05:57:21.392Z,100478.88
2022-10-16T06:00:21.202Z,100470.88
2022-10-16T06:03:03.566Z,100477.19
2022-10-16T06:05:57.391Z,100470.69
2022-10-16T06:08:43.585Z,100483.19
2022-10-16T06:11:38.545Z,100485.53
2022-10-16T06:14:39.188Z,100483.53
2022-10-16T06:18:01.610Z,100491.53
2022-10-16T06:20:50.512Z,100494.50
2022-10-16T06:23:34.325Z,100505.13
2022-10-16T06:26:25.271Z,100504.47
2022-10-16T06:29:18.586Z,100520.13
2022-10-16T06:32:00.990Z,100504.59
2022-10-16T06:35:11.556Z,100516.41
2022-10-16T06:37:52.280Z,100520.06
2022-10-16T06:40:31.717Z,100526.56
2022-10-16T06:43:11.531Z,100530.88
2022-10-16T06:45:57.033Z,100541.31
2022-10-16T06:48:44.413Z,100556.66
2022-10-16T06:51:37.935Z,100565.63
2022-10-16T06:54:42.586Z,100572.44
2022-10-16T06:57:26.450Z,100574.03
2022-10-16T07:00:12.097Z,100572.66
2022-10-16T07:02:51.160Z,100577.84
2022-10-16T07:05:31.769Z,100592.16
2022-10-16T07:08:24.648Z,100583.44
2022-10-16T07:11:07.402Z,100590.44
2022-10-16T07:13:52.641Z,100607.78
2022-10-16T07:16:37.480Z,100616.63
2022-10-16T07:20:18.716Z,100626.44
2022-10-16T07:23:00.655Z,100631.63
2022-10-16T07:25:41.575Z,100637.63
2022-10-16T07:28:23.914Z,100640.22
2022-10-16T07:31:05.367Z,100641.91
2022-10-16T07:33:45.622Z,100650.22
2022-10-16T07:36:27.903Z,100667.03
2022-10-16T07:39:07.585Z,100659.97
2022-10-16T07:41:47.731Z,100674.63
2022-10-16T07:44:30.029Z,100686.28
2022-10-16T07:47:09.897Z,100687.03
2022-10-16T07:49:53.218Z,100705.00
2022-10-16T07:53:04.959Z,100710.13
2022-10-16T07:55:58.264Z,100698.31
2022-10-16T07:59:05.533Z,100711.28
2022-10-16T08:12:15.696Z,100742.00
2022-10-16T08:15:07.737Z,100757.41
2022-10-16T08:18:08.465Z,100761.22
2022-10-16T08:20:51.573Z,100757.34
2022-10-16T08:23:35.258Z,100770.44
2022-10-16T08:26:17.346Z,100776.63
2022-10-16T08:28:57.858Z,100781.47
2022-10-16T08:31:40.722Z,100782.44
2022-10-16T08:34:28.555Z,100783.91
2022-10-16T08:37:49.925Z,100784.81
2022-10-16T08:40:32.022Z,100792.97
2022-10-16T08:43:14.229Z,100796.56
2022-10-16T08:46:10.715Z,100794.16
2022-10-16T08:48:50.443Z,100801.19
2022-10-16T08:51:33.050Z,100794.09
2022-10-16T08:54:18.068Z,100798.06
2022-10-16T08:56:59.909Z,100812.75
2022-10-16T08:59:40.737Z,100819.03
2022-10-16T09:02:33.502Z,100817.66
2022-10-16T09:05:18.402Z,100825.13
2022-10-16T09:10:43.434Z,100845.28
2022-10-16T09:13:23.380Z,100854.44
2022-10-16T09:16:03.408Z,100858.84
2022-10-16T09:18:45.241Z,100855.84
2022-10-16T09:21:25.596Z,100865.16
2022-10-16T09:24:09.075Z,100870.41
2022-10-16T09:26:47.829Z,100873.69
2022-10-16T09:29:27.736Z,100877.16
2022-10-16T09:32:11.482Z,100881.84
2022-10-16T09:34:52.901Z,100880.72
2022-10-16T09:37:31.921Z,100891.53
2022-10-16T09:40:15.834Z,100889.75
2022-10-16T09:42:54.920Z,100894.75
2022-10-16T09:45:34.553Z,100899.34
2022-10-16T09:48:14.846Z,100901.63
2022-10-16T09:51:04.743Z,100911.94
2022-10-16T09:53:44.371Z,100930.06
2022-10-16T09:56:25.988Z,100933.22
2022-10-16T09:59:05.441Z,100949.16
2022-10-16T10:01:45.241Z,100965.69
2022-10-16T10:14:49.771Z,100976.81
2022-10-16T10:17:29.044Z,100974.03
2022-10-16T10:20:28.323Z,100976.94
2022-10-16T10:23:21.435Z,100981.38
2022-10-16T10:26:03.707Z,100988.22
2022-10-16T10:28:49.825Z,100990.38
2022-10-16T10:31:31.326Z,100996.22
2022-10-16T10:34:14.732Z,100999.09
2022-10-16T10:36:55.235Z,100999.75
2022-10-16T10:39:34.699Z,100996.69
2022-10-16T10:42:17.473Z,100998.63
2022-10-16T10:45:10.520Z,101001.97
2022-10-16T10:47:57.098Z,100994.72
2022-10-16T10:50:39.273Z,101002.59
2022-10-16T10:53:23.856Z,101004.72
2022-10-16T10:56:08.409Z,101007.59
2022-10-16T10:59:01.600Z,101007.19
2022-10-16T11:01:43.021Z,101023.78
2022-10-16T11:04:34.950Z,101014.66
2022-10-16T11:07:19.577Z,101015.03
2022-10-16T11:09:59.100Z,101019.56
2022-10-16T11:12:59.274Z,101034.44
2022-10-16T11:15:41.230Z,101025.78
2022-10-16T11:18:21.300Z,101027.91
2022-10-16T11:21:03.659Z,101030.28
2022-10-16T11:23:44.004Z,101041.31
2022-10-16T11:26:25.525Z,101034.91
2022-10-16T11:29:05.630Z,101052.16
2022-10-16T11:31:48.445Z,101044.44
2022-10-16T11:34:34.240Z,101045.03
2022-10-16T11:37:18.977Z,101051.72
2022-10-16T11:40:06.785Z,101061.13
2022-10-16T11:42:47.368Z,101061.34
2022-10-16T11:45:29.050Z,101060.84
2022-10-16T11:48:09.694Z,101064.66
2022-10-16T11:50:52.229Z,101065.19
2022-10-16T11:53:37.608Z,101062.91
2022-10-16T11:56:19.689Z,101061.34
2022-10-16T11:59:03.063Z,101077.41
2022-10-16T12:01:42.625Z,101072.78
2022-10-16T12:04:29.406Z,101076.69
2022-10-16T12:07:09.295Z,101090.31
2022-10-16T12:09:49.225Z,101088.97
2022-10-16T12:12:31.700Z,101099.44
2022-10-16T12:15:40.487Z,101094.00
2022-10-16T12:18:25.195Z,101095.59
2022-10-16T12:21:07.610Z,101095.53
2022-10-16T12:23:50.634Z,101096.75
2022-10-16T12:26:31.395Z,101093.56
2022-10-16T12:29:23.711Z,101084.59
2022-10-16T12:32:08.242Z,101090.66
2022-10-16T12:34:49.810Z,101092.25
2022-10-16T12:37:33.301Z,101091.19
2022-10-16T12:40:20.124Z,101098.34
2022-10-16T12:43:01.234Z,101097.91
2022-10-16T12:45:40.241Z,101097.88
2022-10-16T12:48:26.499Z,101105.88
2022-10-16T12:51:13.539Z,101113.63
2022-10-16T12:54:01.836Z,101109.34
2022-10-16T12:56:43.565Z,101124.34
2022-10-16T12:59:26.126Z,101128.34
2022-10-16T13:02:18.980Z,101126.94
2022-10-16T13:05:03.101Z,101132.16
2022-10-16T13:07:46.420Z,101136.59
2022-10-16T13:10:28.791Z,101137.88
2022-10-16T13:13:15.317Z,101138.59
2022-10-16T13:16:00.656Z,101137.56
2022-10-16T13:18:45.176Z,101139.25
2022-10-16T13:21:30.175Z,101136.50
2022-10-16T13:24:15.904Z,101141.19
2022-10-16T13:26:57.353Z,101144.25
2022-10-16T13:29:37.317Z,101151.72
2022-10-16T13:32:19.495Z,101158.09
2022-10-16T13:34:59.259Z,101154.19
2022-10-16T13:37:39.000Z,101149.06
2022-10-16T13:40:25.421Z,101155.97
2022-10-16T13:43:04.261Z,101161.25
2022-10-16T13:45:43.994Z,101154.41
2022-10-16T13:48:26.475Z,101161.06
2022-10-16T13:51:06.771Z,101149.25
2022-10-16T13:53:47.331Z,101155.47
2022-10-16T13:56:29.259Z,101160.44
2022-10-16T13:59:24.973Z,101159.56
2022-10-16T14:02:07.606Z,101160.81
2022-10-16T14:04:50.483Z,101159.09
2022-10-16T14:07:30.232Z,101158.41
2022-10-16T14:10:22.178Z,101151.97
2022-10-16T14:13:02.878Z,101161.88
2022-10-16T14:15:41.939Z,101168.09
2022-10-16T14:18:22.942Z,101176.31
2022-10-16T14:21:22.383Z,101176.94
2022-10-16T14:24:13.615Z,101172.09
2022-10-16T14:26:57.408Z,101178.13
2022-10-16T14:29:37.836Z,101182.91
2022-10-16T14:32:28.329Z,101175.41
2022-10-16T14:35:14.180Z,101180.97
2022-10-16T14:37:58.620Z,101183.81
2022-10-16T14:40:41.283Z,101185.84
2022-10-16T14:43:22.155Z,101180.19
2022-10-16T14:46:02.203Z,101184.44
2022-10-16T14:48:43.616Z,101185.00
2022-10-16T14:51:23.835Z,101192.19
2022-10-16T14:54:03.713Z,101180.34
2022-10-16T14:56:48.727Z,101174.16
2022-10-16T14:59:49.100Z,101184.59
2022-10-16T15:02:40.451Z,101190.84
2022-10-16T15:05:19.662Z,101192.72
2022-10-16T15:07:59.319Z,101189.13
2022-10-16T15:10:40.365Z,101195.06
2022-10-16T15:13:34.296Z,101196.38
2022-10-16T15:16:15.205Z,101204.47
2022-10-16T15:18:55.147Z,101197.81
2022-10-16T15:21:35.116Z,101205.22
2022-10-16T15:24:20.774Z,101202.53
2022-10-16T15:27:03.396Z,101205.13
2022-10-16T15:29:42.678Z,101204.94
2022-10-16T15:32:22.194Z,101207.03
2022-10-16T15:35:04.378Z,101220.19
2022-10-16T15:37:43.387Z,101207.50
2022-10-16T15:40:25.147Z,101207.41
2022-10-16T15:43:04.575Z,101209.34
2022-10-16T15:45:43.740Z,101216.63
2022-10-16T15:48:22.620Z,101215.94
2022-10-16T15:51:02.770Z,101217.59
2022-10-16T15:53:42.233Z,101204.91
2022-10-16T15:56:23.008Z,101202.13
2022-10-16T15:59:03.222Z,101201.16
2022-10-16T16:01:43.273Z,101205.13
2022-10-16T16:04:42.900Z,101207.81
2022-10-16T16:07:23.603Z,101210.56
2022-10-16T16:10:07.041Z,101207.47
2022-10-16T16:12:52.706Z,101211.03
2022-10-16T16:15:34.686Z,101215.78
2022-10-16T16:18:14.535Z,101216.66
2022-10-16T16:20:54.200Z,101214.38
2022-10-16T16:23:47.857Z,101210.22
2022-10-16T16:26:48.027Z,101203.59
2022-10-16T16:29:27.407Z,101191.22
2022-10-16T16:32:07.919Z,101196.13
2022-10-16T16:34:53.043Z,101204.66
2022-10-16T16:37:33.582Z,101192.28
2022-10-16T16:40:13.207Z,101195.16
2022-10-16T16:42:55.851Z,101185.97
2022-10-16T16:45:38.056Z,101181.50
2022-10-16T16:48:18.166Z,101188.00
2022-10-16T16:50:59.168Z,101193.38
2022-10-16T16:53:54.889Z,101200.22
2022-10-16T16:56:39.758Z,101194.72
2022-10-16T16:59:22.864Z,101180.00
2022-10-16T17:02:08.783Z,101173.97
2022-10-16T17:04:48.979Z,101172.31
2022-10-16T17:07:29.793Z,101177.81
2022-10-16T17:10:10.248Z,101178.50
2022-10-16T17:15:32.846Z,101181.47
2022-10-16T17:18:25.150Z,101174.75
2022-10-16T17:21:06.537Z,101179.06
2022-10-16T17:23:45.561Z,101182.09
2022-10-16T17:26:26.228Z,101189.59
2022-10-16T17:29:05.430Z,101183.09
2022-10-16T17:31:49.756Z,101194.78
2022-10-16T17:34:32.356Z,101200.91
2022-10-16T17:37:27.640Z,101203.22
2022-10-16T17:40:11.026Z,101201.75
2022-10-16T17:42:52.363Z,101200.06
2022-10-16T17:45:31.929Z,101209.09
2022-10-16T17:48:12.559Z,101205.91
2022-10-16T17:50:53.478Z,101215.72
2022-10-16T17:53:35.955Z,101227.41
2022-10-16T17:56:18.496Z,101235.59
2022-10-16T17:58:57.177Z,101229.72
2022-10-16T18:01:38.125Z,101236.06
2022-10-16T18:04:20.478Z,101238.25
2022-10-16T18:07:02.132Z,101246.41
2022-10-16T18:10:10.000Z,101247.56
2022-10-16T18:12:44.027Z,101254.91
2022-10-16T18:15:23.348Z,101253.53
2022-10-16T18:18:03.068Z,101255.22
2022-10-16T18:20:43.007Z,101261.88
2022-10-16T18:23:24.820Z,101260.00
2022-10-16T18:26:07.134Z,101264.34
2022-10-16T18:28:52.745Z,101265.19
2022-10-16T18:31:36.762Z,101263.59
2022-10-16T18:34:18.411Z,101274.81
2022-10-16T18:37:00.476Z,101272.13
2022-10-16T18:39:39.219Z,101273.13
2022-10-16T18:42:19.197Z,101277.78
2022-10-16T18:44:59.226Z,101273.44
2022-10-16T18:47:43.867Z,101268.44
2022-10-16T18:50:27.485Z,101274.09
2022-10-16T18:53:07.758Z,101287.75
2022-10-16T18:55:55.076Z,101303.94
2022-10-16T18:58:38.061Z,101309.44
2022-10-16T19:01:21.509Z,101303.38
2022-10-16T19:04:02.076Z,101311.38
2022-10-16T19:06:42.714Z,101305.38
2022-10-16T19:09:23.649Z,101298.34
2022-10-16T19:12:07.012Z,101297.69
2022-10-16T19:14:47.298Z,101294.47
2022-10-16T19:17:26.620Z,101299.00
2022-10-16T19:20:10.322Z,101297.31
2022-10-16T19:22:59.236Z,101289.47
2022-10-16T19:25:39.948Z,101277.13
2022-10-16T19:28:18.984Z,101285.28
2022-10-16T19:30:59.067Z,101287.09
2022-10-16T19:33:54.313Z,101291.59
2022-10-16T19:36:34.018Z,101296.22
2022-10-16T19:39:14.045Z,101296.22
2022-10-16T19:41:52.895Z,101305.22
2022-10-16T19:44:34.733Z,101315.22
2022-10-16T19:47:19.658Z,101311.88
2022-10-16T19:50:02.010Z,101317.38
2022-10-16T19:52:45.141Z,101314.03
2022-10-16T19:55:25.339Z,101317.81
2022-10-16T19:58:05.128Z,101318.66
2022-10-16T20:00:48.941Z,101321.47
2022-10-16T20:03:30.997Z,101327.13
2022-10-16T20:06:10.610Z,101323.63
2022-10-16T20:08:51.468Z,101321.94
2022-10-16T20:11:35.498Z,101331.75
2022-10-16T20:14:13.758Z,101332.06
2022-10-16T20:16:53.950Z,101329.38
2022-10-16T20:19:35.249Z,101332.34
2022-10-16T20:22:13.468Z,101344.88
2022-10-16T20:24:56.478Z,101357.38
2022-10-16T20:27:37.635Z,101357.50
2022-10-16T20:30:16.772Z,101352.34
2022-10-16T20:33:01.490Z,101365.69
2022-10-16T20:35:44.703Z,101366.81
2022-10-16T20:38:27.115Z,101383.81
2022-10-16T20:41:08.508Z,101385.66
2022-10-16T20:43:52.823Z,101382.97
2022-10-16T20:46:36.282Z,101382.97
2022-10-16T20:49:35.706Z,101382.97
2022-10-16T20:52:20.321Z,101385.66
2022-10-16T20:54:59.653Z,101386.47
2022-10-16T20:57:43.521Z,101388.31
2022-10-16T21:00:28.583Z,101382.97
2022-10-16T21:03:11.020Z,101390.81
2022-10-16T21:05:53.502Z,101391.66
2022-10-16T21:08:37.359Z,101385.50
2022-10-16T21:11:17.479Z,101379.31
2022-10-16T21:13:58.552Z,101377.50
2022-10-16T21:16:37.425Z,101381.00
2022-10-16T21:19:16.605Z,101364.69
2022-10-16T21:21:56.408Z,101382.66
2022-10-16T21:24:36.403Z,101386.03
2022-10-16T21:27:20.700Z,101390.22
2022-10-16T21:30:00.080Z,101394.56
2022-10-16T21:32:40.014Z,101407.44
2022-10-16T21:35:21.870Z,101401.41
2022-10-16T21:38:01.613Z,101401.13
2022-10-16T21:40:43.460Z,101398.44
2022-10-16T21:43:25.005Z,101400.00
2022-10-16T21:46:16.134Z,101394.19
2022-10-16T21:48:57.245Z,101389.84
2022-10-16T21:51:40.233Z,101385.09
2022-10-16T21:54:21.516Z,101381.09
2022-10-16T21:57:06.468Z,101364.09
2022-10-16T21:59:45.261Z,101367.63
2022-10-16T22:02:28.054Z,101359.44
2022-10-16T22:05:08.659Z,101368.84
2022-10-16T22:07:48.854Z,101370.38
2022-10-16T22:10:41.095Z,101363.19
2022-10-16T22:13:37.874Z,101369.06
2022-10-16T22:16:21.591Z,101369.06
2022-10-16T22:19:02.467Z,101375.25
2022-10-16T22:21:41.823Z,101371.72
2022-10-16T22:24:21.560Z,101379.75
2022-10-16T22:27:01.292Z,101380.44
2022-10-16T22:29:41.158Z,101383.25
2022-10-16T22:32:21.088Z,101383.09
2022-10-16T22:35:01.653Z,101391.78
2022-10-16T22:37:40.516Z,101388.81
2022-10-16T22:40:20.327Z,101388.81
2022-10-16T22:43:03.308Z,101375.31
2022-10-16T22:45:43.113Z,101388.53
2022-10-16T22:48:22.881Z,101369.84
2022-10-16T22:51:02.914Z,101360.16
2022-10-16T22:53:42.759Z,101368.91
2022-10-16T22:56:22.633Z,101363.56
2022-10-16T22:59:02.186Z,101353.09
2022-10-16T23:01:42.610Z,101351.44
2022-10-16T23:04:21.756Z,101343.97
2022-10-16T23:07:01.083Z,101340.31
2022-10-16T23:09:40.024Z,101343.81
2022-10-16T23:12:21.725Z,101348.31
2022-10-16T23:15:02.115Z,101337.63
2022-10-16T23:17:43.816Z,101335.97
2022-10-16T23:20:24.168Z,101323.28
2022-10-16T23:23:05.673Z,101330.06
2022-10-16T23:25:47.768Z,101328.34
2022-10-16T23:28:28.023Z,101336.88
2022-10-16T23:31:08.106Z,101335.31
2022-10-16T23:33:47.660Z,101336.50
2022-10-16T23:36:39.367Z,101339.31
2022-10-16T23:39:19.064Z,101325.81
2022-10-16T23:41:58.866Z,101331.75
2022-10-16T23:44:38.661Z,101321.19
2022-10-16T23:47:18.440Z,101314.63
2022-10-16T23:49:58.249Z,101327.13
2022-10-16T23:52:38.079Z,101311.94
2022-10-16T23:55:19.962Z,101316.59
2022-10-16T23:57:59.489Z,101303.69
